createdAt,value
2023-01-21T00:01:42.711Z,102677.26
2023-01-21T00:04:12.849Z,102669.66
2023-01-21T00:06:42.647Z,102665.70
2023-01-21T00:09:12.745Z,102674.52
2023-01-21T00:11:42.630Z,102687.06
2023-01-21T00:14:12.840Z,102684.67
2023-01-21T00:16:42.688Z,102684.47
2023-01-21T00:19:12.460Z,102689.27
2023-01-21T00:21:42.548Z,102686.16
2023-01-21T00:24:13.253Z,102694.69
2023-01-21T00:26:43.155Z,102699.28
2023-01-21T00:29:12.827Z,102698.52
2023-01-21T00:31:42.782Z,102700.59
2023-01-21T00:34:12.825Z,102698.66
2023-01-21T00:36:42.594Z,102699.35
2023-01-21T00:39:12.486Z,102708.87
2023-01-21T00:41:42.294Z,102706.38
2023-01-21T00:44:12.803Z,102712.48
2023-01-21T00:46:42.780Z,102712.89
2023-01-21T00:49:12.700Z,102721.27
2023-01-21T00:51:42.444Z,102721.27
2023-01-21T00:54:12.653Z,102725.89
2023-01-21T00:56:42.443Z,102732.79
2023-01-21T00:59:12.285Z,102732.79
2023-01-21T01:01:42.407Z,102739.32
2023-01-21T01:04:13.558Z,102751.48
2023-01-21T01:06:43.439Z,102755.70
2023-01-21T01:09:13.210Z,102761.89
2023-01-21T01:11:43.092Z,102778.89
2023-01-21T01:14:12.946Z,102778.89
2023-01-21T01:16:42.741Z,102788.94
2023-01-21T01:19:13.668Z,102792.48
2023-01-21T01:21:43.529Z,102793.63
2023-01-21T01:24:13.620Z,102802.97
2023-01-21T01:26:43.395Z,102806.89
2023-01-21T01:29:13.875Z,102810.25
2023-01-21T01:31:44.265Z,102814.84
2023-01-21T01:34:14.821Z,102813.41
2023-01-21T01:36:44.619Z,102807.88
2023-01-21T01:39:14.470Z,102817.83
2023-01-21T01:41:44.140Z,102819.56
2023-01-21T01:44:49.224Z,102818.04
2023-01-21T01:47:19.805Z,102817.16
2023-01-21T01:49:49.934Z,102829.16
2023-01-21T01:52:21.139Z,102834.13
2023-01-21T01:54:54.257Z,102834.42
2023-01-21T01:57:27.007Z,102839.34
2023-01-21T01:59:57.951Z,102839.34
2023-01-21T02:02:27.509Z,102845.54
2023-01-21T02:05:00.322Z,102850.33
2023-01-21T02:07:33.241Z,102847.02
2023-01-21T02:10:04.003Z,102840.34
2023-01-21T02:12:34.765Z,102855.22
2023-01-21T02:15:07.441Z,102852.09
2023-01-21T02:17:52.072Z,102859.50
2023-01-21T02:20:36.539Z,102866.57
2023-01-21T02:23:21.183Z,102875.55
2023-01-21T02:26:19.239Z,102879.60
2023-01-21T02:29:17.544Z,102879.13
2023-01-21T02:32:23.221Z,102884.49
2023-01-21T02:35:27.064Z,102884.02
2023-01-21T02:38:02.370Z,102880.89
2023-01-21T02:40:46.403Z,102893.05
2023-01-21T02:43:19.537Z,102897.60
2023-01-21T02:45:58.287Z,102892.72
2023-01-21T02:48:36.670Z,102898.16
2023-01-21T02:51:59.836Z,102902.83
2023-01-21T02:54:41.071Z,102904.31
2023-01-21T02:57:13.930Z,102902.02
2023-01-21T02:59:46.922Z,102910.63
2023-01-21T03:02:19.892Z,102908.66
2023-01-21T03:04:58.844Z,102914.50
2023-01-21T03:07:43.490Z,102915.38
2023-01-21T03:10:23.519Z,102918.74
2023-01-21T03:13:19.239Z,102927.95
2023-01-21T03:16:09.750Z,102931.81
2023-01-21T03:18:42.581Z,102929.37
2023-01-21T03:21:18.002Z,102938.75
2023-01-21T03:23:51.433Z,102939.95
2023-01-21T03:26:26.355Z,102945.31
2023-01-21T03:28:58.289Z,102949.55
2023-01-21T03:31:34.268Z,102941.82
2023-01-21T03:34:08.113Z,102945.36
2023-01-21T03:36:49.723Z,102951.06
2023-01-21T03:39:38.901Z,102954.69
2023-01-21T03:42:09.399Z,102960.97
2023-01-21T03:44:40.177Z,102957.98
2023-01-21T03:47:29.184Z,102952.79
2023-01-21T03:50:02.045Z,102964.68
2023-01-21T03:52:32.039Z,102964.20
2023-01-21T03:55:02.294Z,102960.05
2023-01-21T03:57:32.115Z,102962.47
2023-01-21T04:00:01.990Z,102967.44
2023-01-21T04:02:33.746Z,102974.92
2023-01-21T04:05:03.944Z,102966.75
2023-01-21T04:07:33.725Z,102970.77
2023-01-21T04:10:03.566Z,102972.63
2023-01-21T04:12:33.577Z,102967.22
2023-01-21T04:15:05.445Z,102975.78
2023-01-21T04:17:34.651Z,102976.73
2023-01-21T04:20:07.196Z,102979.39
2023-01-21T04:22:37.045Z,102982.25
2023-01-21T04:25:07.939Z,102983.97
2023-01-21T04:27:37.774Z,102981.55
2023-01-21T04:30:09.532Z,102986.47
2023-01-21T04:32:39.395Z,102983.58
2023-01-21T04:35:09.354Z,102984.92
2023-01-21T04:37:39.240Z,102985.41
2023-01-21T04:40:11.008Z,102984.05
2023-01-21T04:42:43.559Z,102978.05
2023-01-21T04:45:13.221Z,102990.03
2023-01-21T04:47:44.441Z,102984.05
2023-01-21T04:50:15.609Z,102987.92
2023-01-21T04:52:45.888Z,102990.77
2023-01-21T04:55:15.860Z,102996.59
2023-01-21T04:57:45.673Z,102996.59
2023-01-21T05:00:18.432Z,102996.56
2023-01-21T05:02:48.792Z,103001.30
2023-01-21T05:05:19.737Z,103002.81
2023-01-21T05:07:51.383Z,103007.45
2023-01-21T05:10:21.687Z,103014.31
2023-01-21T05:12:51.861Z,103018.85
2023-01-21T05:15:21.846Z,103015.03
2023-01-21T05:17:51.647Z,103016.59
2023-01-21T05:20:21.985Z,103021.71
2023-01-21T05:22:51.871Z,103027.23
2023-01-21T05:25:21.891Z,103032.02
2023-01-21T05:27:55.249Z,103034.22
2023-01-21T05:30:25.165Z,103039.76
2023-01-21T05:32:55.768Z,103040.92
2023-01-21T05:35:25.732Z,103046.02
2023-01-21T05:37:55.804Z,103046.27
2023-01-21T05:40:25.617Z,103045.81
2023-01-21T05:42:55.749Z,103047.88
2023-01-21T05:45:25.268Z,103048.52
2023-01-21T05:47:55.065Z,103041.34
2023-01-21T05:50:25.083Z,103041.34
2023-01-21T05:52:54.858Z,103048.06
2023-01-21T05:55:24.602Z,103055.23
2023-01-21T05:57:54.662Z,103064.92
2023-01-21T06:00:24.518Z,103064.09
2023-01-21T06:02:54.296Z,103060.94
2023-01-21T06:05:23.933Z,103068.47
2023-01-21T06:07:53.724Z,103075.70
2023-01-21T06:10:23.345Z,103071.35
2023-01-21T06:12:53.332Z,103082.58
2023-01-21T06:15:23.018Z,103085.18
2023-01-21T06:17:53.987Z,103080.13
2023-01-21T06:20:23.676Z,103083.13
2023-01-21T06:22:53.620Z,103082.80
2023-01-21T06:25:23.342Z,103089.47
2023-01-21T06:27:55.910Z,103090.06
2023-01-21T06:30:26.526Z,103093.72
2023-01-21T06:32:56.010Z,103106.28
2023-01-21T06:35:25.545Z,103103.95
2023-01-21T06:37:55.317Z,103108.53
2023-01-21T06:40:25.726Z,103111.88
2023-01-21T06:42:55.792Z,103115.65
2023-01-21T06:45:25.653Z,103124.05
2023-01-21T06:47:55.429Z,103129.13
2023-01-21T06:50:25.005Z,103134.98
2023-01-21T06:52:54.830Z,103139.34
2023-01-21T06:55:24.486Z,103140.23
2023-01-21T06:57:54.343Z,103147.56
2023-01-21T07:00:24.358Z,103144.50
2023-01-21T07:02:59.376Z,103151.05
2023-01-21T07:05:29.445Z,103147.64
2023-01-21T07:07:59.677Z,103157.97
2023-01-21T07:10:29.435Z,103153.64
2023-01-21T07:12:59.325Z,103158.36
2023-01-21T07:15:30.912Z,103158.36
2023-01-21T07:18:00.811Z,103168.42
2023-01-21T07:20:30.741Z,103171.68
2023-01-21T07:23:00.576Z,103167.66
2023-01-21T07:25:30.502Z,103169.47
2023-01-21T07:28:00.276Z,103171.76
2023-01-21T07:30:30.035Z,103181.91
2023-01-21T07:33:01.337Z,103186.48
2023-01-21T07:35:31.415Z,103191.35
2023-01-21T07:38:01.234Z,103203.91
2023-01-21T07:40:31.176Z,103201.23
2023-01-21T07:43:00.750Z,103213.56
2023-01-21T07:45:30.662Z,103221.45
2023-01-21T07:48:00.797Z,103220.84
2023-01-21T07:50:31.000Z,103222.75
2023-01-21T07:53:00.947Z,103229.22
2023-01-21T07:55:31.131Z,103228.60
2023-01-21T07:58:01.264Z,103237.90
2023-01-21T08:00:31.070Z,103243.73
2023-01-21T08:03:00.866Z,103245.89
2023-01-21T08:05:30.353Z,103261.13
2023-01-21T08:08:00.367Z,103269.78
2023-01-21T08:10:30.147Z,103269.25
2023-01-21T08:13:01.854Z,103278.66
2023-01-21T08:15:31.698Z,103281.95
2023-01-21T08:18:01.815Z,103293.31
2023-01-21T08:20:31.620Z,103289.71
2023-01-21T08:23:02.325Z,103301.90
2023-01-21T08:25:32.394Z,103302.97
2023-01-21T08:28:02.195Z,103303.80
2023-01-21T08:30:32.415Z,103290.18
2023-01-21T08:33:02.212Z,103286.88
2023-01-21T08:35:32.134Z,103297.37
2023-01-21T08:38:03.375Z,103296.52
2023-01-21T08:40:33.156Z,103309.95
2023-01-21T08:43:04.752Z,103310.16
2023-01-21T08:45:34.584Z,103310.16
2023-01-21T08:48:06.784Z,103314.81
2023-01-21T08:50:36.607Z,103311.25
2023-01-21T08:53:06.417Z,103312.63
2023-01-21T08:55:35.952Z,103315.36
2023-01-21T08:58:06.654Z,103314.59
2023-01-21T09:00:36.449Z,103313.03
2023-01-21T09:03:05.928Z,103315.42
2023-01-21T09:05:35.714Z,103323.39
2023-01-21T09:08:06.596Z,103319.23
2023-01-21T09:10:53.848Z,103318.28
2023-01-21T09:13:23.652Z,103313.30
2023-01-21T09:15:53.813Z,103313.38
2023-01-21T09:18:23.498Z,103317.20
2023-01-21T09:20:53.983Z,103321.73
2023-01-21T09:23:27.457Z,103317.77
2023-01-21T09:26:06.025Z,103317.35
2023-01-21T09:28:38.725Z,103324.42
2023-01-21T09:31:11.413Z,103328.45
2023-01-21T09:33:44.524Z,103327.40
2023-01-21T09:36:16.765Z,103333.57
2023-01-21T09:38:48.291Z,103332.08
2023-01-21T09:41:23.814Z,103334.08
2023-01-21T09:44:08.518Z,103333.28
2023-01-21T09:46:41.654Z,103340.52
2023-01-21T09:49:20.398Z,103333.32
2023-01-21T09:51:53.843Z,103340.97
2023-01-21T09:54:29.487Z,103346.53
2023-01-21T09:57:10.972Z,103349.73
2023-01-21T09:59:49.867Z,103348.95
2023-01-21T10:02:28.221Z,103352.63
2023-01-21T10:05:05.413Z,103355.05
2023-01-21T10:07:41.190Z,103356.36
2023-01-21T10:10:23.566Z,103358.64
2023-01-21T10:13:08.518Z,103363.05
2023-01-21T10:15:52.628Z,103372.54
2023-01-21T10:18:30.564Z,103379.85
2023-01-21T10:21:03.906Z,103376.58
2023-01-21T10:23:38.708Z,103366.61
2023-01-21T10:26:13.149Z,103374.75
2023-01-21T10:28:51.663Z,103369.11
2023-01-21T10:31:27.023Z,103364.71
2023-01-21T10:33:56.975Z,103369.30
2023-01-21T10:36:35.585Z,103367.84
2023-01-21T10:39:17.265Z,103371.48
2023-01-21T10:42:06.268Z,103373.61
2023-01-21T10:44:39.118Z,103374.66
2023-01-21T10:47:20.471Z,103369.31
2023-01-21T10:49:53.331Z,103363.98
2023-01-21T10:52:46.191Z,103361.77
2023-01-21T10:55:21.668Z,103365.20
2023-01-21T10:58:03.619Z,103351.84
2023-01-21T11:00:36.394Z,103351.47
2023-01-21T11:03:41.250Z,103344.86
2023-01-21T11:06:14.885Z,103347.07
2023-01-21T11:08:47.494Z,103343.69
2023-01-21T11:11:20.371Z,103344.25
2023-01-21T11:13:50.282Z,103346.02
2023-01-21T11:16:44.009Z,103351.97
2023-01-21T11:19:19.397Z,103342.91
2023-01-21T11:22:20.206Z,103346.48
2023-01-21T11:24:52.761Z,103347.37
2023-01-21T11:27:25.678Z,103347.52
2023-01-21T11:29:55.815Z,103353.33
2023-01-21T11:32:27.918Z,103349.44
2023-01-21T11:35:12.911Z,103349.46
2023-01-21T11:37:45.813Z,103342.20
2023-01-21T11:40:21.584Z,103345.11
2023-01-21T11:42:54.464Z,103347.69
2023-01-21T11:45:32.761Z,103350.23
2023-01-21T11:48:02.731Z,103346.73
2023-01-21T11:50:35.367Z,103348.36
2023-01-21T11:53:13.864Z,103348.78
2023-01-21T11:55:55.136Z,103345.04
2023-01-21T11:58:28.008Z,103346.21
2023-01-21T12:01:00.564Z,103348.46
2023-01-21T12:03:39.693Z,103348.68
2023-01-21T12:06:14.540Z,103347.42
2023-01-21T12:08:45.832Z,103345.97
2023-01-21T12:11:21.689Z,103344.41
2023-01-21T12:14:00.785Z,103347.72
2023-01-21T12:16:36.172Z,103347.16
2023-01-21T12:19:16.868Z,103346.88
2023-01-21T12:22:24.064Z,103355.26
2023-01-21T12:25:22.267Z,103350.45
2023-01-21T12:28:11.647Z,103355.91
2023-01-21T12:30:44.574Z,103347.25
2023-01-21T12:33:23.483Z,103349.81
2023-01-21T12:35:58.857Z,103350.82
2023-01-21T12:38:31.629Z,103342.45
2023-01-21T12:41:13.071Z,103346.39
2023-01-21T12:43:48.790Z,103350.78
2023-01-21T12:46:30.172Z,103348.09
2023-01-21T12:49:15.571Z,103347.11
2023-01-21T12:51:48.706Z,103351.92
2023-01-21T12:54:37.547Z,103352.50
2023-01-21T12:57:16.571Z,103347.42
2023-01-21T12:59:58.559Z,103351.36
2023-01-21T13:02:49.369Z,103339.59
2023-01-21T13:05:33.562Z,103339.74
2023-01-21T13:08:30.537Z,103338.90
2023-01-21T13:11:06.795Z,103345.41
2023-01-21T13:13:54.073Z,103331.63
2023-01-21T13:16:26.499Z,103334.88
2023-01-21T13:18:56.666Z,103332.25
2023-01-21T13:21:29.533Z,103331.93
2023-01-21T13:24:17.060Z,103331.93
2023-01-21T13:26:55.373Z,103329.61
2023-01-21T13:29:31.877Z,103331.42
2023-01-21T13:32:16.242Z,103338.75
2023-01-21T13:34:49.119Z,103334.66
2023-01-21T13:37:39.802Z,103335.20
2023-01-21T13:40:46.356Z,103332.67
2023-01-21T13:43:33.984Z,103328.72
2023-01-21T13:49:08.503Z,103326.22
2023-01-21T13:51:53.148Z,103342.06
2023-01-21T13:54:31.721Z,103335.84
2023-01-21T13:57:07.165Z,103340.62
2023-01-21T13:59:42.339Z,103348.26
2023-01-21T14:02:32.762Z,103348.86
2023-01-21T14:05:08.306Z,103353.52
2023-01-21T14:07:52.732Z,103350.02
2023-01-21T14:10:28.374Z,103353.25
2023-01-21T14:13:13.084Z,103343.64
2023-01-21T14:15:45.985Z,103347.34
2023-01-21T14:18:24.286Z,103348.67
2023-01-21T14:21:30.017Z,103352.92
2023-01-21T14:24:17.326Z,103355.31
2023-01-21T14:27:07.812Z,103352.98
2023-01-21T14:29:40.695Z,103361.58
2023-01-21T14:32:29.492Z,103357.55
2023-01-21T14:35:10.963Z,103370.18
2023-01-21T14:37:47.009Z,103363.97
2023-01-21T14:40:22.763Z,103376.85
2023-01-21T14:42:53.185Z,103374.65
2023-01-21T14:45:25.784Z,103374.92
2023-01-21T14:47:58.603Z,103380.09
2023-01-21T14:50:54.124Z,103384.36
2023-01-21T14:53:26.851Z,103379.45
2023-01-21T14:56:13.096Z,103379.45
2023-01-21T14:58:49.158Z,103378.64
2023-01-21T15:01:28.027Z,103380.66
2023-01-21T15:03:59.788Z,103389.06
2023-01-21T15:06:30.201Z,103397.16
2023-01-21T15:09:01.552Z,103398.95
2023-01-21T15:11:37.535Z,103395.05
2023-01-21T15:14:30.320Z,103394.35
2023-01-21T15:17:00.159Z,103400.40
2023-01-21T15:19:35.514Z,103404.16
2023-01-21T15:22:23.238Z,103400.61
2023-01-21T15:25:19.616Z,103392.62
2023-01-21T15:28:24.194Z,103395.00
2023-01-21T15:31:02.540Z,103394.30
2023-01-21T15:33:34.649Z,103397.44
2023-01-21T15:36:08.488Z,103401.48
2023-01-21T15:38:41.503Z,103397.36
2023-01-21T15:41:23.139Z,103399.86
2023-01-21T15:44:01.853Z,103399.86
2023-01-21T15:46:34.365Z,103396.28
2023-01-21T15:49:25.289Z,103400.36
2023-01-21T15:52:14.457Z,103403.83
2023-01-21T15:55:11.103Z,103400.73
2023-01-21T15:58:01.801Z,103399.68
2023-01-21T16:00:37.143Z,103405.73
2023-01-21T16:03:18.593Z,103408.44
2023-01-21T16:05:57.344Z,103407.88
2023-01-21T16:08:46.200Z,103401.85
2023-01-21T16:11:45.970Z,103408.55
2023-01-21T16:14:24.795Z,103404.08
2023-01-21T16:16:57.635Z,103404.08
2023-01-21T16:19:33.626Z,103405.59
2023-01-21T16:22:07.562Z,103407.91
2023-01-21T16:24:40.763Z,103409.39
2023-01-21T16:27:19.327Z,103415.73
2023-01-21T16:29:50.701Z,103419.70
2023-01-21T16:32:20.871Z,103419.70
2023-01-21T16:34:50.642Z,103421.14
2023-01-21T16:37:25.287Z,103424.74
2023-01-21T16:40:14.180Z,103430.38
2023-01-21T16:42:44.647Z,103429.61
2023-01-21T16:45:25.556Z,103425.92
2023-01-21T16:48:00.705Z,103433.21
2023-01-21T16:50:32.982Z,103438.00
2023-01-21T16:53:05.795Z,103434.20
2023-01-21T16:55:37.103Z,103432.26
2023-01-21T16:58:11.046Z,103428.95
2023-01-21T17:00:41.173Z,103425.16
2023-01-21T17:03:12.527Z,103437.50
2023-01-21T17:05:42.535Z,103436.84
2023-01-21T17:08:14.968Z,103441.50
2023-01-21T17:11:05.774Z,103444.44
2023-01-21T17:13:38.849Z,103448.91
2023-01-21T17:16:29.219Z,103438.80
2023-01-21T17:19:04.945Z,103437.94
2023-01-21T17:21:43.222Z,103446.36
2023-01-21T17:24:22.215Z,103449.01
2023-01-21T17:26:54.989Z,103453.77
2023-01-21T17:29:32.918Z,103459.92
2023-01-21T17:32:22.105Z,103459.92
2023-01-21T17:35:06.815Z,103459.53
2023-01-21T17:38:05.821Z,103458.63
2023-01-21T17:41:01.819Z,103459.88
2023-01-21T17:43:32.321Z,103460.97
2023-01-21T17:46:02.955Z,103466.06
2023-01-21T17:48:38.799Z,103461.88
2023-01-21T17:51:14.595Z,103474.69
2023-01-21T17:53:56.893Z,103470.37
2023-01-21T17:56:40.198Z,103476.02
2023-01-21T17:59:37.937Z,103480.95
2023-01-21T18:02:14.959Z,103478.98
2023-01-21T18:04:44.883Z,103482.61
2023-01-21T18:07:23.676Z,103482.88
2023-01-21T18:09:57.039Z,103488.65
2023-01-21T18:12:27.397Z,103494.11
2023-01-21T18:14:58.484Z,103490.69
2023-01-21T18:17:28.676Z,103491.56
2023-01-21T18:19:58.818Z,103488.17
2023-01-21T18:22:31.866Z,103488.66
2023-01-21T18:25:02.854Z,103488.66
2023-01-21T18:27:32.864Z,103489.27
2023-01-21T18:30:02.741Z,103499.62
2023-01-21T18:32:32.585Z,103498.92
2023-01-21T18:35:02.687Z,103492.77
2023-01-21T18:37:32.587Z,103491.56
2023-01-21T18:40:02.973Z,103492.69
2023-01-21T18:42:34.067Z,103495.45
2023-01-21T18:45:03.924Z,103495.64
2023-01-21T18:47:33.686Z,103494.39
2023-01-21T18:50:03.749Z,103499.16
2023-01-21T18:52:33.955Z,103496.67
2023-01-21T18:55:03.718Z,103495.69
2023-01-21T18:57:33.683Z,103502.50
2023-01-21T19:00:06.289Z,103501.61
2023-01-21T19:02:36.568Z,103505.45
2023-01-21T19:05:08.286Z,103503.82
2023-01-21T19:07:38.156Z,103509.85
2023-01-21T19:10:13.184Z,103507.12
2023-01-21T19:12:43.580Z,103504.71
2023-01-21T19:15:19.269Z,103505.34
2023-01-21T19:17:50.987Z,103497.83
2023-01-21T19:20:23.304Z,103497.14
2023-01-21T19:22:54.778Z,103504.37
2023-01-21T19:25:26.852Z,103504.11
2023-01-21T19:27:57.995Z,103501.98
2023-01-21T19:30:30.364Z,103501.90
2023-01-21T19:33:03.794Z,103502.16
2023-01-21T19:35:37.510Z,103499.11
2023-01-21T19:38:23.216Z,103501.80
2023-01-21T19:40:53.012Z,103494.64
2023-01-21T19:43:23.303Z,103502.19
2023-01-21T19:45:55.751Z,103495.40
2023-01-21T19:48:25.695Z,103490.90
2023-01-21T19:50:55.537Z,103490.90
2023-01-21T19:53:25.359Z,103490.63
2023-01-21T19:55:55.569Z,103491.19
2023-01-21T19:58:28.419Z,103491.19
2023-01-21T20:00:58.316Z,103486.68
2023-01-21T20:03:30.415Z,103483.31
2023-01-21T20:06:04.868Z,103490.52
2023-01-21T20:08:34.507Z,103490.67
2023-01-21T20:11:04.392Z,103490.67
2023-01-21T20:13:35.810Z,103496.32
2023-01-21T20:16:14.002Z,103491.51
2023-01-21T20:18:46.153Z,103506.42
2023-01-21T20:21:16.153Z,103504.48
2023-01-21T20:23:46.003Z,103503.16
2023-01-21T20:26:18.556Z,103511.39
2023-01-21T20:28:50.402Z,103509.91
2023-01-21T20:31:20.414Z,103512.33
2023-01-21T20:33:50.193Z,103510.30
2023-01-21T20:36:23.009Z,103510.65
2023-01-21T20:38:54.871Z,103510.65
2023-01-21T20:41:25.092Z,103505.39
2023-01-21T20:43:54.866Z,103501.37
2023-01-21T20:46:27.440Z,103508.64
2023-01-21T20:48:58.442Z,103498.06
2023-01-21T20:51:28.353Z,103503.98
2023-01-21T20:53:58.217Z,103501.40
2023-01-21T20:56:32.810Z,103501.84
2023-01-21T20:59:02.735Z,103504.28
2023-01-21T21:01:34.208Z,103502.20
2023-01-21T21:04:06.956Z,103505.11
2023-01-21T21:06:36.787Z,103503.11
2023-01-21T21:09:06.587Z,103499.81
2023-01-21T21:11:36.376Z,103500.50
2023-01-21T21:14:08.196Z,103492.95
2023-01-21T21:16:38.106Z,103498.97
2023-01-21T21:19:09.517Z,103498.42
2023-01-21T21:21:39.317Z,103497.58
2023-01-21T21:24:10.956Z,103497.58
2023-01-21T21:26:40.818Z,103497.69
2023-01-21T21:29:14.141Z,103498.38
2023-01-21T21:31:43.715Z,103502.73
2023-01-21T21:34:13.927Z,103497.70
2023-01-21T21:36:44.115Z,103497.23
2023-01-21T21:39:15.633Z,103490.28
2023-01-21T21:42:03.204Z,103493.69
2023-01-21T21:44:33.044Z,103499.37
2023-01-21T21:47:20.663Z,103493.62
2023-01-21T21:49:50.420Z,103484.77
2023-01-21T21:52:24.113Z,103489.74
2023-01-21T21:54:54.739Z,103491.09
2023-01-21T21:57:24.221Z,103491.09
2023-01-21T21:59:53.981Z,103490.61
2023-01-21T22:02:23.536Z,103487.20
2023-01-21T22:04:54.815Z,103488.41
2023-01-21T22:07:24.415Z,103491.02
2023-01-21T22:09:54.219Z,103486.70
2023-01-21T22:12:24.246Z,103499.13
2023-01-21T22:14:54.001Z,103504.61
2023-01-21T22:17:23.849Z,103492.22
2023-01-21T22:19:53.686Z,103484.91
2023-01-21T22:22:23.455Z,103496.02
2023-01-21T22:24:54.759Z,103497.21
2023-01-21T22:27:24.775Z,103497.21
2023-01-21T22:29:54.582Z,103501.20
2023-01-21T22:32:24.199Z,103503.58
2023-01-21T22:34:53.990Z,103500.18
2023-01-21T22:37:23.548Z,103492.08
2023-01-21T22:39:53.764Z,103496.89
2023-01-21T22:42:23.225Z,103485.98
2023-01-21T22:44:53.039Z,103490.52
2023-01-21T22:47:22.816Z,103481.28
2023-01-21T22:49:52.671Z,103481.28
2023-01-21T22:52:22.172Z,103488.92
2023-01-21T22:54:52.519Z,103490.87
2023-01-21T22:57:22.711Z,103491.74
2023-01-21T22:59:52.829Z,103481.89
2023-01-21T23:02:23.981Z,103488.19
2023-01-21T23:04:54.011Z,103480.63
2023-01-21T23:07:23.850Z,103479.46
2023-01-21T23:09:53.907Z,103480.80
2023-01-21T23:12:23.984Z,103478.34
2023-01-21T23:14:53.819Z,103467.73
2023-01-21T23:17:23.661Z,103477.66
2023-01-21T23:19:53.435Z,103470.55
2023-01-21T23:22:23.248Z,103470.56
2023-01-21T23:24:53.103Z,103463.80
2023-01-21T23:27:22.909Z,103458.16
2023-01-21T23:29:52.764Z,103455.56
2023-01-21T23:32:22.380Z,103467.95
2023-01-21T23:34:52.160Z,103466.94
2023-01-21T23:37:24.490Z,103462.12
2023-01-21T23:39:54.450Z,103465.66
2023-01-21T23:42:24.325Z,103458.34
2023-01-21T23:44:54.098Z,103456.69
2023-01-21T23:47:24.565Z,103451.94
2023-01-21T23:49:54.364Z,103456.05
2023-01-21T23:52:24.054Z,103444.31
2023-01-21T23:54:53.827Z,103437.87
2023-01-21T23:57:23.593Z,103448.59
2023-01-21T23:59:53.665Z,103448.59
